Bettles Airport
PABT : now visible

Airfield :











YOU CAN JOIN US ON...

 
LOGIN :

Register | Disclaimer

   EN    FR    IT 

 









Legend :    VFR   Marginal VFR   IFR   Intensive IFR   Very Intensive IFR
Visi :
Ceiling :
>= 8 km
>= 3000ft
5 to 8 km
1000 to 3000 ft
1500m to 5 km
500 to 1000 ft
800 to 1500m
200 to 500 ft
< 800m
< 200 ft
Symbols :   Thunderstorms  Fog  Heavy snow  Heavy precipitations  Wind > 20 kt






- Airport Elevation : 647 ft
- IATA code : BTT


PABT - Bettles

CURRENT METAR :
  • 210353Z 35006KT 1/2SM SN FZFG OVC022 M08/M10 A2901 RMK AO2 SLP842 T10831100

EXPIRED METARs :
  • 210309Z 34007KT 1 1/2SM -SN BR OVC028 M08/M11 A2902 RMK AO2 T10831106
  • 210153Z 35007KT 8SM -SN BKN060 OVC070 M08/M11 A2902 RMK AO2 SNB33 SLP846 T10781111
  • 210053Z 35007KT 10SM BKN060 OVC070 M07/M12 A2905 RMK AO2 SLP853 SHSN VC W T10721117

TAF PABT
Valid from the 21 at 00:00 until the 22 at 00:00 UTC


202328Z 2100/2124 01008KT P6SM VCSH FEW040 OVC090
FM211800 35005KT 4SM -SN BR BKN030 OVC050



MET'MAP, your aeronautical weather chart ! - Copyright ORBIFLY December 2007 - Disclaimer

ORBIFLY MET'MAP TEAM :

Programming & Development : Alexandra Zaïnal
Concept & original design : Baudouin d'Aumeries
Assistance for programming : Marc-Olivier Méhu
Technical & hardware support : Manuel Goepfert

Contact : metmap@orbifly.com




SOURCES & CREDITS :

   NOAA       Earth
Advisory